sensor_id;sensor_type;location;lat;lon;timestamp;pressure;altitude;pressure_sealevel;temperature;humidity
71504;BME280;59323;50.874;7.028;2023-04-08T00:02:19;101783.97;;;8.22;100.00
71504;BME280;59323;50.874;7.028;2023-04-08T00:04:44;101791.16;;;8.18;100.00
71504;BME280;59323;50.874;7.028;2023-04-08T00:07:10;101789.53;;;8.26;100.00
71504;BME280;59323;50.874;7.028;2023-04-08T00:09:35;101782.38;;;8.21;100.00
71504;BME280;59323;50.874;7.028;2023-04-08T00:12:00;101790.69;;;8.16;100.00
71504;BME280;59323;50.874;7.028;2023-04-08T00:14:26;101795.63;;;8.14;100.00
71504;BME280;59323;50.874;7.028;2023-04-08T00:16:51;101793.25;;;8.13;100.00
71504;BME280;59323;50.874;7.028;2023-04-08T00:19:17;101790.84;;;8.11;100.00
71504;BME280;59323;50.874;7.028;2023-04-08T00:21:42;101790.53;;;8.13;100.00
71504;BME280;59323;50.874;7.028;2023-04-08T00:24:07;101787.50;;;8.14;100.00
71504;BME280;59323;50.874;7.028;2023-04-08T00:26:33;101792.13;;;8.14;100.00
71504;BME280;59323;50.874;7.028;2023-04-08T00:28:58;101787.81;;;8.13;100.00
71504;BME280;59323;50.874;7.028;2023-04-08T00:31:23;101786.06;;;8.17;100.00
71504;BME280;59323;50.874;7.028;2023-04-08T00:33:49;101793.69;;;8.23;100.00
71504;BME280;59323;50.874;7.028;2023-04-08T00:36:15;101786.22;;;8.20;100.00
71504;BME280;59323;50.874;7.028;2023-04-08T00:38:40;101794.66;;;8.19;100.00
71504;BME280;59323;50.874;7.028;2023-04-08T00:41:05;101797.50;;;8.22;99.99
71504;BME280;59323;50.874;7.028;2023-04-08T00:43:31;101793.53;;;8.20;100.00
71504;BME280;59323;50.874;7.028;2023-04-08T00:45:56;101797.84;;;8.21;100.00
71504;BME280;59323;50.874;7.028;2023-04-08T00:48:21;101794.97;;;8.26;100.00
71504;BME280;59323;50.874;7.028;2023-04-08T00:50:47;101795.28;;;8.24;99.55
71504;BME280;59323;50.874;7.028;2023-04-08T00:53:16;101797.50;;;8.22;99.19
71504;BME280;59323;50.874;7.028;2023-04-08T00:55:42;101804.53;;;8.23;99.56
71504;BME280;59323;50.874;7.028;2023-04-08T00:58:07;101798.16;;;8.19;100.00
71504;BME280;59323;50.874;7.028;2023-04-08T01:00:35;101797.84;;;8.12;99.74
71504;BME280;59323;50.874;7.028;2023-04-08T01:03:10;101800.56;;;8.12;100.00
71504;BME280;59323;50.874;7.028;2023-04-08T01:05:59;101808.22;;;8.10;100.00
71504;BME280;59323;50.874;7.028;2023-04-08T01:08:28;101811.72;;;8.11;100.00
71504;BME280;59323;50.874;7.028;2023-04-08T01:10:58;101809.31;;;8.09;100.00
71504;BME280;59323;50.874;7.028;2023-04-08T01:13:29;101808.53;;;8.09;100.00
71504;BME280;59323;50.874;7.028;2023-04-08T01:15:55;101811.09;;;8.05;100.00
71504;BME280;59323;50.874;7.028;2023-04-08T01:18:21;101802.16;;;8.13;100.00
71504;BME280;59323;50.874;7.028;2023-04-08T01:20:48;101805.66;;;8.14;100.00
71504;BME280;59323;50.874;7.028;2023-04-08T01:23:32;101807.09;;;8.11;100.00
71504;BME280;59323;50.874;7.028;2023-04-08T01:26:01;101799.13;;;8.06;100.00
71504;BME280;59323;50.874;7.028;2023-04-08T01:28:28;101803.75;;;8.06;100.00
71504;BME280;59323;50.874;7.028;2023-04-08T01:30:56;101806.78;;;8.04;100.00
71504;BME280;59323;50.874;7.028;2023-04-08T01:33:23;101804.41;;;8.03;100.00
71504;BME280;59323;50.874;7.028;2023-04-08T01:35:50;101802.16;;;8.05;100.00
71504;BME280;59323;50.874;7.028;2023-04-08T01:38:18;101809.16;;;8.06;100.00
71504;BME280;59323;50.874;7.028;2023-04-08T01:40:45;101809.97;;;8.06;100.00
71504;BME280;59323;50.874;7.028;2023-04-08T01:43:13;101802.97;;;8.05;100.00
71504;BME280;59323;50.874;7.028;2023-04-08T01:45:42;101808.53;;;8.09;100.00
71504;BME280;59323;50.874;7.028;2023-04-08T01:48:08;101800.88;;;8.11;100.00
71504;BME280;59323;50.874;7.028;2023-04-08T01:50:34;101804.38;;;8.11;100.00
71504;BME280;59323;50.874;7.028;2023-04-08T01:53:01;101808.84;;;8.07;100.00
71504;BME280;59323;50.874;7.028;2023-04-08T01:55:31;101808.38;;;8.05;100.00
71504;BME280;59323;50.874;7.028;2023-04-08T01:57:59;101810.59;;;8.03;100.00
71504;BME280;59323;50.874;7.028;2023-04-08T02:00:29;101812.84;;;8.01;100.00
71504;BME280;59323;50.874;7.028;2023-04-08T02:02:56;101806.78;;;8.04;100.00
71504;BME280;59323;50.874;7.028;2023-04-08T02:05:22;101812.03;;;8.01;100.00
71504;BME280;59323;50.874;7.028;2023-04-08T02:07:48;101813.63;;;8.02;100.00
71504;BME280;59323;50.874;7.028;2023-04-08T02:10:13;101809.50;;;8.04;100.00
71504;BME280;59323;50.874;7.028;2023-04-08T02:12:39;101814.59;;;8.06;100.00
71504;BME280;59323;50.874;7.028;2023-04-08T02:15:05;101822.53;;;8.11;100.00
71504;BME280;59323;50.874;7.028;2023-04-08T02:17:36;101817.91;;;8.11;100.00
71504;BME280;59323;50.874;7.028;2023-04-08T02:20:06;101819.19;;;8.05;100.00
71504;BME280;59323;50.874;7.028;2023-04-08T02:25:03;101820.97;;;8.01;100.00
71504;BME280;59323;50.874;7.028;2023-04-08T02:27:33;101819.38;;;8.00;100.00
71504;BME280;59323;50.874;7.028;2023-04-08T02:29:59;101815.38;;;7.98;100.00
71504;BME280;59323;50.874;7.028;2023-04-08T02:32:28;101814.59;;;7.97;100.00
71504;BME280;59323;50.874;7.028;2023-04-08T02:34:55;101823.50;;;7.98;100.00
71504;BME280;59323;50.874;7.028;2023-04-08T02:37:20;101826.06;;;8.03;100.00
71504;BME280;59323;50.874;7.028;2023-04-08T02:39:46;101818.56;;;8.00;100.00
71504;BME280;59323;50.874;7.028;2023-04-08T02:42:11;101822.06;;;8.00;100.00
71504;BME280;59323;50.874;7.028;2023-04-08T02:44:36;101815.88;;;8.00;100.00
71504;BME280;59323;50.874;7.028;2023-04-08T02:47:02;101821.13;;;7.96;100.00
71504;BME280;59323;50.874;7.028;2023-04-08T02:49:27;101822.72;;;7.97;100.00
71504;BME280;59323;50.874;7.028;2023-04-08T02:51:52;101820.81;;;7.98;100.00
71504;BME280;59323;50.874;7.028;2023-04-08T02:54:18;101824.94;;;8.04;100.00
71504;BME280;59323;50.874;7.028;2023-04-08T02:56:43;101822.72;;;7.97;100.00
71504;BME280;59323;50.874;7.028;2023-04-08T02:59:08;101823.97;;;8.00;100.00
71504;BME280;59323;50.874;7.028;2023-04-08T03:01:34;101821.28;;;8.00;100.00
71504;BME280;59323;50.874;7.028;2023-04-08T03:03:59;101828.28;;;8.01;100.00
71504;BME280;59323;50.874;7.028;2023-04-08T03:06:25;101820.31;;;7.95;100.00
71504;BME280;59323;50.874;7.028;2023-04-08T03:08:50;101822.88;;;7.92;100.00
71504;BME280;59323;50.874;7.028;2023-04-08T03:11:16;101823.84;;;7.87;100.00
71504;BME280;59323;50.874;7.028;2023-04-08T03:13:41;101822.72;;;7.88;100.00
71504;BME280;59323;50.874;7.028;2023-04-08T03:16:07;101824.00;;;7.91;100.00
71504;BME280;59323;50.874;7.028;2023-04-08T03:18:32;101824.16;;;7.86;100.00
71504;BME280;59323;50.874;7.028;2023-04-08T03:20:57;101827.50;;;7.83;100.00
71504;BME280;59323;50.874;7.028;2023-04-08T03:23:23;101827.81;;;7.81;100.00
71504;BME280;59323;50.874;7.028;2023-04-08T03:25:48;101826.69;;;7.82;100.00
71504;BME280;59323;50.874;7.028;2023-04-08T03:28:13;101828.94;;;7.80;100.00
71504;BME280;59323;50.874;7.028;2023-04-08T03:30:39;101828.44;;;7.87;100.00
71504;BME280;59323;50.874;7.028;2023-04-08T03:33:04;101825.28;;;7.85;100.00
71504;BME280;59323;50.874;7.028;2023-04-08T03:35:32;101827.50;;;7.83;100.00
71504;BME280;59323;50.874;7.028;2023-04-08T03:37:57;101827.19;;;7.84;100.00
71504;BME280;59323;50.874;7.028;2023-04-08T03:40:23;101840.72;;;7.84;100.00
71504;BME280;59323;50.874;7.028;2023-04-08T03:42:48;101838.31;;;7.83;100.00
71504;BME280;59323;50.874;7.028;2023-04-08T03:45:14;101844.84;;;7.90;100.00
71504;BME280;59323;50.874;7.028;2023-04-08T03:47:39;101837.38;;;7.87;100.00
71504;BME280;59323;50.874;7.028;2023-04-08T03:50:05;101837.22;;;7.84;100.00
71504;BME280;59323;50.874;7.028;2023-04-08T03:52:31;101846.13;;;7.84;100.00
71504;BME280;59323;50.874;7.028;2023-04-08T03:54:56;101843.09;;;7.86;100.00
71504;BME280;59323;50.874;7.028;2023-04-08T03:57:21;101842.63;;;7.84;100.00
71504;BME280;59323;50.874;7.028;2023-04-08T03:59:47;101839.44;;;7.90;100.00
71504;BME280;59323;50.874;7.028;2023-04-08T04:02:12;101842.16;;;7.90;100.00
71504;BME280;59323;50.874;7.028;2023-04-08T04:04:37;101836.41;;;7.83;100.00
71504;BME280;59323;50.874;7.028;2023-04-08T04:07:03;101842.94;;;7.82;100.00
71504;BME280;59323;50.874;7.028;2023-04-08T04:09:28;101839.25;;;7.78;100.00
71504;BME280;59323;50.874;7.028;2023-04-08T04:11:53;101833.03;;;7.78;100.00
71504;BME280;59323;50.874;7.028;2023-04-08T04:14:19;101841.16;;;7.78;100.00
71504;BME280;59323;50.874;7.028;2023-04-08T04:16:44;101841.47;;;7.76;100.00
71504;BME280;59323;50.874;7.028;2023-04-08T04:19:09;101846.41;;;7.74;100.00
71504;BME280;59323;50.874;7.028;2023-04-08T04:21:35;101838.94;;;7.80;100.00
71504;BME280;59323;50.874;7.028;2023-04-08T04:24:00;101845.31;;;7.84;100.00
71504;BME280;59323;50.874;7.028;2023-04-08T04:26:25;101855.16;;;7.80;100.00
71504;BME280;59323;50.874;7.028;2023-04-08T04:28:51;101857.88;;;7.80;100.00
71504;BME280;59323;50.874;7.028;2023-04-08T04:31:19;101858.19;;;7.78;100.00
71504;BME280;59323;50.874;7.028;2023-04-08T04:33:46;101857.06;;;7.79;100.00
71504;BME280;59323;50.874;7.028;2023-04-08T04:36:11;101854.69;;;7.78;100.00
71504;BME280;59323;50.874;7.028;2023-04-08T04:38:37;101858.34;;;7.73;100.00
71504;BME280;59323;50.874;7.028;2023-04-08T04:41:03;101866.78;;;7.72;100.00
71504;BME280;59323;50.874;7.028;2023-04-08T04:43:28;101863.75;;;7.73;100.00
71504;BME280;59323;50.874;7.028;2023-04-08T04:45:54;101868.38;;;7.73;100.00
71504;BME280;59323;50.874;7.028;2023-04-08T04:48:20;101867.56;;;7.72;100.00
71504;BME280;59323;50.874;7.028;2023-04-08T04:50:54;101865.66;;;7.73;100.00
71504;BME280;59323;50.874;7.028;2023-04-08T04:53:20;101862.97;;;7.73;100.00
71504;BME280;59323;50.874;7.028;2023-04-08T04:55:45;101867.25;;;7.74;100.00
71504;BME280;59323;50.874;7.028;2023-04-08T04:58:10;101868.84;;;7.75;100.00
71504;BME280;59323;50.874;7.028;2023-04-08T05:00:36;101869.53;;;7.80;100.00
71504;BME280;59323;50.874;7.028;2023-04-08T05:03:01;101878.44;;;7.81;100.00
71504;BME280;59323;50.874;7.028;2023-04-08T05:05:26;101870.59;;;7.79;100.00
71504;BME280;59323;50.874;7.028;2023-04-08T05:07:51;101865.19;;;7.79;100.00
71504;BME280;59323;50.874;7.028;2023-04-08T05:10:17;101869.81;;;7.79;100.00
71504;BME280;59323;50.874;7.028;2023-04-08T05:12:43;101878.72;;;7.79;100.00
71504;BME280;59323;50.874;7.028;2023-04-08T05:15:09;101881.75;;;7.78;100.00
71504;BME280;59323;50.874;7.028;2023-04-08T05:17:34;101879.03;;;7.78;100.00
71504;BME280;59323;50.874;7.028;2023-04-08T05:20:00;101872.34;;;7.75;100.00
71504;BME280;59323;50.874;7.028;2023-04-08T05:22:25;101872.34;;;7.75;100.00
71504;BME280;59323;50.874;7.028;2023-04-08T05:24:50;101876.34;;;7.78;100.00
71504;BME280;59323;50.874;7.028;2023-04-08T05:27:15;101881.44;;;7.79;100.00
71504;BME280;59323;50.874;7.028;2023-04-08T05:29:41;101878.72;;;7.79;100.00
71504;BME280;59323;50.874;7.028;2023-04-08T05:32:06;101885.25;;;7.78;100.00
71504;BME280;59323;50.874;7.028;2023-04-08T05:34:32;101887.63;;;7.80;100.00
71504;BME280;59323;50.874;7.028;2023-04-08T05:36:57;101890.66;;;7.78;100.00
71504;BME280;59323;50.874;7.028;2023-04-08T05:39:22;101894.94;;;7.79;100.00
71504;BME280;59323;50.874;7.028;2023-04-08T05:41:47;101884.13;;;7.79;100.00
71504;BME280;59323;50.874;7.028;2023-04-08T05:44:13;101897.06;;;7.82;100.00
71504;BME280;59323;50.874;7.028;2023-04-08T05:46:38;101893.03;;;7.80;100.00
71504;BME280;59323;50.874;7.028;2023-04-08T05:49:04;101902.00;;;7.80;100.00
71504;BME280;59323;50.874;7.028;2023-04-08T05:51:29;101905.81;;;7.88;100.00
71504;BME280;59323;50.874;7.028;2023-04-08T05:53:55;101914.91;;;7.92;100.00
71504;BME280;59323;50.874;7.028;2023-04-08T05:56:20;101913.63;;;7.89;100.00
71504;BME280;59323;50.874;7.028;2023-04-08T05:58:46;101927.94;;;7.90;100.00
71504;BME280;59323;50.874;7.028;2023-04-08T06:01:11;101920.94;;;7.89;100.00
71504;BME280;59323;50.874;7.028;2023-04-08T06:03:36;101919.19;;;7.84;100.00
71504;BME280;59323;50.874;7.028;2023-04-08T06:06:12;101928.09;;;7.85;100.00
71504;BME280;59323;50.874;7.028;2023-04-08T06:08:37;101932.09;;;7.87;100.00
71504;BME280;59323;50.874;7.028;2023-04-08T06:11:02;101928.09;;;7.85;100.00
71504;BME280;59323;50.874;7.028;2023-04-08T06:13:29;101923.81;;;7.84;100.00
71504;BME280;59323;50.874;7.028;2023-04-08T06:15:54;101931.91;;;7.84;100.00
71504;BME280;59323;50.874;7.028;2023-04-08T06:18:20;101927.47;;;7.88;100.00
71504;BME280;59323;50.874;7.028;2023-04-08T06:20:45;101930.66;;;7.90;100.00
71504;BME280;59323;50.874;7.028;2023-04-08T06:23:10;101928.09;;;7.85;100.00
71504;BME280;59323;50.874;7.028;2023-04-08T06:25:36;101935.91;;;7.95;100.00
71504;BME280;59323;50.874;7.028;2023-04-08T06:28:02;101947.06;;;7.93;100.00
71504;BME280;59323;50.874;7.028;2023-04-08T06:30:27;101936.53;;;7.92;100.00
71504;BME280;59323;50.874;7.028;2023-04-08T06:32:53;101951.66;;;7.93;100.00
71504;BME280;59323;50.874;7.028;2023-04-08T06:35:18;101954.84;;;7.95;100.00
71504;BME280;59323;50.874;7.028;2023-04-08T06:37:43;101951.03;;;7.96;100.00
71504;BME280;59323;50.874;7.028;2023-04-08T06:40:09;101955.34;;;7.97;100.00
71504;BME280;59323;50.874;7.028;2023-04-08T06:42:35;101954.56;;;8.05;100.00
71504;BME280;59323;50.874;7.028;2023-04-08T06:45:03;101948.50;;;8.08;100.00
71504;BME280;59323;50.874;7.028;2023-04-08T06:47:28;101958.38;;;8.04;100.00
71504;BME280;59323;50.874;7.028;2023-04-08T06:49:54;101954.88;;;8.04;100.00
71504;BME280;59323;50.874;7.028;2023-04-08T06:52:19;101950.88;;;8.01;100.00
71504;BME280;59323;50.874;7.028;2023-04-08T06:54:44;101957.56;;;8.04;100.00
71504;BME280;59323;50.874;7.028;2023-04-08T06:57:10;101959.16;;;8.05;100.00
71504;BME280;59323;50.874;7.028;2023-04-08T06:59:35;101948.81;;;8.07;100.00
71504;BME280;59323;50.874;7.028;2023-04-08T07:02:01;101961.72;;;8.10;100.00
71504;BME280;59323;50.874;7.028;2023-04-08T07:04:26;101968.41;;;8.12;100.00
71504;BME280;59323;50.874;7.028;2023-04-08T07:06:52;101973.50;;;8.14;100.00
71504;BME280;59323;50.874;7.028;2023-04-08T07:09:17;101970.66;;;8.19;100.00
71504;BME280;59323;50.874;7.028;2023-04-08T07:11:43;101967.78;;;8.24;100.00
71504;BME280;59323;50.874;7.028;2023-04-08T07:14:08;101964.75;;;8.25;100.00
71504;BME280;59323;50.874;7.028;2023-04-08T07:16:33;101980.25;;;8.34;100.00
71504;BME280;59323;50.874;7.028;2023-04-08T07:18:59;101974.81;;;8.34;100.00
71504;BME280;59323;50.874;7.028;2023-04-08T07:21:24;101976.72;;;8.33;100.00
71504;BME280;59323;50.874;7.028;2023-04-08T07:23:49;101983.09;;;8.37;100.00
71504;BME280;59323;50.874;7.028;2023-04-08T07:26:15;101982.47;;;8.40;100.00
71504;BME280;59323;50.874;7.028;2023-04-08T07:28:40;101987.44;;;8.47;100.00
71504;BME280;59323;50.874;7.028;2023-04-08T07:31:11;101987.44;;;8.64;100.00
71504;BME280;59323;50.874;7.028;2023-04-08T07:33:36;101978.50;;;8.72;100.00
71504;BME280;59323;50.874;7.028;2023-04-08T07:36:02;101980.69;;;8.87;100.00
71504;BME280;59323;50.874;7.028;2023-04-08T07:38:27;101985.28;;;9.13;100.00
71504;BME280;59323;50.874;7.028;2023-04-08T07:40:52;101983.72;;;9.50;100.00
71504;BME280;59323;50.874;7.028;2023-04-08T07:43:18;101991.84;;;9.88;98.83
71504;BME280;59323;50.874;7.028;2023-04-08T07:45:43;101988.97;;;10.14;91.93
71504;BME280;59323;50.874;7.028;2023-04-08T07:48:08;101998.47;;;10.29;92.49
71504;BME280;59323;50.874;7.028;2023-04-08T07:50:37;101995.34;;;10.39;92.40
71504;BME280;59323;50.874;7.028;2023-04-08T07:53:03;102003.19;;;10.40;91.08
71504;BME280;59323;50.874;7.028;2023-04-08T07:55:35;101999.72;;;10.31;86.57
71504;BME280;59323;50.874;7.028;2023-04-08T07:58:01;102003.47;;;10.18;85.49
71504;BME280;59323;50.874;7.028;2023-04-08T08:00:26;101998.09;;;10.09;85.57
71504;BME280;59323;50.874;7.028;2023-04-08T08:02:54;102001.47;;;10.06;86.88
71504;BME280;59323;50.874;7.028;2023-04-08T08:05:19;102009.94;;;10.05;89.35
71504;BME280;59323;50.874;7.028;2023-04-08T08:07:45;102007.09;;;10.01;88.45
71504;BME280;59323;50.874;7.028;2023-04-08T08:10:10;102008.09;;;9.97;89.36
71504;BME280;59323;50.874;7.028;2023-04-08T08:12:36;102020.22;;;9.99;90.51
71504;BME280;59323;50.874;7.028;2023-04-08T08:15:02;102017.81;;;9.98;91.59
71504;BME280;59323;50.874;7.028;2023-04-08T08:17:27;102020.34;;;10.03;91.95
71504;BME280;59323;50.874;7.028;2023-04-08T08:19:55;102020.00;;;10.04;92.67
71504;BME280;59323;50.874;7.028;2023-04-08T08:22:21;102018.88;;;10.05;90.02
71504;BME280;59323;50.874;7.028;2023-04-08T08:24:46;102025.25;;;10.09;90.83
71504;BME280;59323;50.874;7.028;2023-04-08T08:27:11;102024.13;;;10.10;87.46
71504;BME280;59323;50.874;7.028;2023-04-08T08:29:37;102027.38;;;10.04;87.17
71504;BME280;59323;50.874;7.028;2023-04-08T08:32:03;102027.84;;;10.06;85.81
71504;BME280;59323;50.874;7.028;2023-04-08T08:34:28;102024.84;;;9.99;87.29
71504;BME280;59323;50.874;7.028;2023-04-08T08:36:53;102026.75;;;9.98;87.24
71504;BME280;59323;50.874;7.028;2023-04-08T08:39:20;102029.47;;;9.98;86.98
71504;BME280;59323;50.874;7.028;2023-04-08T08:41:45;102028.81;;;10.01;88.55
71504;BME280;59323;50.874;7.028;2023-04-08T08:44:11;102033.44;;;10.01;89.64
71504;BME280;59323;50.874;7.028;2023-04-08T08:46:45;102032.47;;;10.05;87.85
71504;BME280;59323;50.874;7.028;2023-04-08T08:49:11;102040.28;;;10.07;89.38
71504;BME280;59323;50.874;7.028;2023-04-08T08:51:40;102031.81;;;10.08;87.61
71504;BME280;59323;50.874;7.028;2023-04-08T08:54:09;102034.53;;;10.08;88.92
71504;BME280;59323;50.874;7.028;2023-04-08T08:56:35;102040.09;;;10.12;89.26
71504;BME280;59323;50.874;7.028;2023-04-08T08:59:00;102039.91;;;10.17;88.02
71504;BME280;59323;50.874;7.028;2023-04-08T09:01:30;102043.09;;;10.19;90.28
71504;BME280;59323;50.874;7.028;2023-04-08T09:06:37;102045.13;;;10.31;90.34
71504;BME280;59323;50.874;7.028;2023-04-08T09:09:03;102050.03;;;10.37;90.26
71504;BME280;59323;50.874;7.028;2023-04-08T09:11:35;102037.53;;;10.45;89.38
71504;BME280;59323;50.874;7.028;2023-04-08T09:14:01;102053.63;;;10.50;87.22
71504;BME280;59323;50.874;7.028;2023-04-08T09:16:26;102059.75;;;10.47;87.51
71504;BME280;59323;50.874;7.028;2023-04-08T09:18:53;102053.84;;;10.45;87.00
71504;BME280;59323;50.874;7.028;2023-04-08T09:21:21;102052.41;;;10.39;88.05
71504;BME280;59323;50.874;7.028;2023-04-08T09:23:51;102053.53;;;10.38;88.93
71504;BME280;59323;50.874;7.028;2023-04-08T09:26:18;102051.81;;;10.33;89.68
71504;BME280;59323;50.874;7.028;2023-04-08T09:29:00;102050.09;;;10.29;88.31
71504;BME280;59323;50.874;7.028;2023-04-08T09:31:30;102058.03;;;10.34;86.90
71504;BME280;59323;50.874;7.028;2023-04-08T09:33:59;102057.72;;;10.35;89.66
71504;BME280;59323;50.874;7.028;2023-04-08T09:36:29;102058.19;;;10.37;89.63
71504;BME280;59323;50.874;7.028;2023-04-08T09:38:54;102062.00;;;10.45;85.90
71504;BME280;59323;50.874;7.028;2023-04-08T09:41:21;102063.38;;;10.51;86.81
71504;BME280;59323;50.874;7.028;2023-04-08T09:43:52;102070.69;;;10.59;86.24
71504;BME280;59323;50.874;7.028;2023-04-08T09:46:25;102071.28;;;10.65;85.97
71504;BME280;59323;50.874;7.028;2023-04-08T09:51:28;102070.41;;;10.73;84.15
71504;BME280;59323;50.874;7.028;2023-04-08T09:54:00;102068.22;;;10.87;82.79
71504;BME280;59323;50.874;7.028;2023-04-08T09:56:30;102063.47;;;10.96;85.06
71504;BME280;59323;50.874;7.028;2023-04-08T09:59:05;102066.47;;;11.03;85.04
71504;BME280;59323;50.874;7.028;2023-04-08T10:01:38;102068.66;;;11.10;82.87
71504;BME280;59323;50.874;7.028;2023-04-08T10:04:09;102065.72;;;11.15;83.39
71504;BME280;59323;50.874;7.028;2023-04-08T10:06:35;102065.97;;;11.22;81.04
71504;BME280;59323;50.874;7.028;2023-04-08T10:09:02;102068.69;;;11.22;79.84
71504;BME280;59323;50.874;7.028;2023-04-08T10:11:29;102066.19;;;11.17;79.80
71504;BME280;59323;50.874;7.028;2023-04-08T10:13:55;102055.66;;;11.16;79.79
71504;BME280;59323;50.874;7.028;2023-04-08T10:16:24;102063.13;;;11.19;78.49
71504;BME280;59323;50.874;7.028;2023-04-08T10:18:52;102059.16;;;11.16;76.24
71504;BME280;59323;50.874;7.028;2023-04-08T10:24:10;102060.69;;;11.05;77.62
71504;BME280;59323;50.874;7.028;2023-04-08T10:26:37;102071.91;;;11.03;79.32
71504;BME280;59323;50.874;7.028;2023-04-08T10:31:48;102068.13;;;11.17;82.26
71504;BME280;59323;50.874;7.028;2023-04-08T10:34:24;102069.16;;;11.24;77.39
71504;BME280;59323;50.874;7.028;2023-04-08T10:36:51;102064.50;;;11.25;78.94
71504;BME280;59323;50.874;7.028;2023-04-08T10:39:17;102070.88;;;11.29;80.10
71504;BME280;59323;50.874;7.028;2023-04-08T10:41:44;102073.72;;;11.32;79.85
71504;BME280;59323;50.874;7.028;2023-04-08T10:44:16;102075.44;;;11.37;76.26
71504;BME280;59323;50.874;7.028;2023-04-08T10:46:42;102062.63;;;11.37;78.10
71504;BME280;59323;50.874;7.028;2023-04-08T10:49:08;102063.19;;;11.43;76.34
71504;BME280;59323;50.874;7.028;2023-04-08T10:51:33;102060.13;;;11.44;77.28
71504;BME280;59323;50.874;7.028;2023-04-08T10:54:08;102065.91;;;11.43;77.52
71504;BME280;59323;50.874;7.028;2023-04-08T10:56:35;102064.56;;;11.49;78.38
71504;BME280;59323;50.874;7.028;2023-04-08T10:59:01;102052.00;;;11.57;77.16
71504;BME280;59323;50.874;7.028;2023-04-08T11:01:36;102066.97;;;11.63;76.88
71504;BME280;59323;50.874;7.028;2023-04-08T11:04:06;102059.97;;;11.74;76.52
71504;BME280;59323;50.874;7.028;2023-04-08T11:06:36;102061.13;;;11.85;75.44
71504;BME280;59323;50.874;7.028;2023-04-08T11:09:02;102052.28;;;11.88;73.17
71504;BME280;59323;50.874;7.028;2023-04-08T11:11:29;102050.69;;;11.99;73.98
71504;BME280;59323;50.874;7.028;2023-04-08T11:13:55;102055.47;;;12.02;74.87
71504;BME280;59323;50.874;7.028;2023-04-08T11:16:21;102055.91;;;12.04;73.99
71504;BME280;59323;50.874;7.028;2023-04-08T11:18:47;102050.91;;;12.06;72.72
71504;BME280;59323;50.874;7.028;2023-04-08T11:21:14;102056.94;;;12.12;74.25
71504;BME280;59323;50.874;7.028;2023-04-08T11:23:41;102054.75;;;12.18;69.25
71504;BME280;59323;50.874;7.028;2023-04-08T11:26:06;102048.88;;;12.16;68.92
71504;BME280;59323;50.874;7.028;2023-04-08T11:28:33;102047.28;;;12.15;70.66
71504;BME280;59323;50.874;7.028;2023-04-08T11:30:59;102048.53;;;12.17;68.42
71504;BME280;59323;50.874;7.028;2023-04-08T11:33:29;102047.72;;;12.17;71.06
71504;BME280;59323;50.874;7.028;2023-04-08T11:35:55;102043.63;;;12.23;70.90
71504;BME280;59323;50.874;7.028;2023-04-08T11:38:22;102047.94;;;12.24;67.48
71504;BME280;59323;50.874;7.028;2023-04-08T11:40:54;102044.09;;;12.13;70.82
71504;BME280;59323;50.874;7.028;2023-04-08T11:43:20;102048.66;;;12.09;68.39
71504;BME280;59323;50.874;7.028;2023-04-08T11:45:46;102046.03;;;12.00;69.67
71504;BME280;59323;50.874;7.028;2023-04-08T11:48:13;102046.72;;;11.97;69.23
71504;BME280;59323;50.874;7.028;2023-04-08T11:50:39;102044.00;;;11.97;70.36
71504;BME280;59323;50.874;7.028;2023-04-08T11:53:24;102042.88;;;11.98;71.03
71504;BME280;59323;50.874;7.028;2023-04-08T11:55:50;102044.56;;;12.02;71.04
71504;BME280;59323;50.874;7.028;2023-04-08T11:58:15;102043.19;;;12.09;69.42
71504;BME280;59323;50.874;7.028;2023-04-08T12:00:41;102042.28;;;12.04;69.57
71504;BME280;59323;50.874;7.028;2023-04-08T12:03:07;102041.84;;;12.02;72.02
71504;BME280;59323;50.874;7.028;2023-04-08T12:05:32;102048.19;;;12.06;70.83
71504;BME280;59323;50.874;7.028;2023-04-08T12:07:58;102050.22;;;12.10;71.96
71504;BME280;59323;50.874;7.028;2023-04-08T12:10:23;102045.69;;;12.14;73.21
71504;BME280;59323;50.874;7.028;2023-04-08T12:12:51;102049.22;;;12.14;69.92
71504;BME280;59323;50.874;7.028;2023-04-08T12:15:17;102044.88;;;12.13;67.78
71504;BME280;59323;50.874;7.028;2023-04-08T12:17:43;102045.91;;;12.09;68.32
71504;BME280;59323;50.874;7.028;2023-04-08T12:20:10;102046.94;;;12.04;68.88
71504;BME280;59323;50.874;7.028;2023-04-08T12:22:35;102048.75;;;12.00;70.26
71504;BME280;59323;50.874;7.028;2023-04-08T12:25:01;102053.41;;;11.99;68.91
71504;BME280;59323;50.874;7.028;2023-04-08T12:27:31;102058.97;;;12.03;70.08
71504;BME280;59323;50.874;7.028;2023-04-08T12:30:00;102053.19;;;12.04;70.27
71504;BME280;59323;50.874;7.028;2023-04-08T12:32:26;102050.91;;;12.06;71.16
71504;BME280;59323;50.874;7.028;2023-04-08T12:34:51;102053.41;;;12.12;70.96
71504;BME280;59323;50.874;7.028;2023-04-08T12:37:17;102049.66;;;12.16;68.61
71504;BME280;59323;50.874;7.028;2023-04-08T12:39:42;102059.53;;;12.09;69.68
71504;BME280;59323;50.874;7.028;2023-04-08T12:42:07;102055.13;;;12.04;68.51
71504;BME280;59323;50.874;7.028;2023-04-08T12:44:33;102053.53;;;12.03;69.03
71504;BME280;59323;50.874;7.028;2023-04-08T12:46:58;102057.38;;;12.02;69.81
71504;BME280;59323;50.874;7.028;2023-04-08T12:49:27;102049.34;;;11.93;70.47
71504;BME280;59323;50.874;7.028;2023-04-08T12:51:52;102046.94;;;11.92;72.01
71504;BME280;59323;50.874;7.028;2023-04-08T12:54:19;102044.34;;;11.95;71.98
71504;BME280;59323;50.874;7.028;2023-04-08T12:56:45;102048.75;;;12.00;69.92
71504;BME280;59323;50.874;7.028;2023-04-08T12:59:10;102045.13;;;11.96;72.31
71504;BME280;59323;50.874;7.028;2023-04-08T13:01:36;102046.03;;;12.00;72.74